Time;durP1;ratioP1;P1;durP2;ratioP2;P2;SDS_P1;SDS_P2;PMS_P1;PMS_P2;Temp;Humidity;BMP_temperature;BMP_pressure;BME280_temperature;BME280_humidity;BME280_pressure;Samples;Min_cycle;Max_cycle;Signal;HPM_P1;HPM_P2
2023/05/02 00:00:07;;;;;;;5.90;5.40;;;;;;;10.36;71.85;93777.44;516200;28;766;-57
2023/05/02 00:00:23;;;;;;;5.70;5.13;;;;;;;10.36;71.97;93777.44;516011;28;927;-57
2023/05/02 00:00:38;;;;;;;6.17;5.30;;;;;;;10.37;71.76;93771.38;516134;28;1536;-56
2023/05/02 00:00:54;;;;;;;7.03;5.47;;;;;;;10.38;71.50;93775.63;516149;28;829;-55
2023/05/02 00:01:09;;;;;;;7.10;5.20;;;;;;;10.39;71.42;93779.88;516115;28;855;-57
2023/05/02 00:01:24;;;;;;;5.97;5.00;;;;;;;10.41;71.59;93780.06;516088;28;952;-57
2023/05/02 00:01:40;;;;;;;6.22;5.20;;;;;;;10.44;71.22;93781.00;516088;28;805;-56
2023/05/02 00:01:55;;;;;;;6.00;5.30;;;;;;;10.45;71.24;93777.72;516194;28;795;-56
2023/05/02 00:02:11;;;;;;;6.03;5.32;;;;;;;10.47;71.61;93782.69;516027;28;856;-55
2023/05/02 00:02:26;;;;;;;6.03;5.23;;;;;;;10.45;71.47;93783.22;516143;28;746;-56
2023/05/02 00:02:42;;;;;;;6.40;4.93;;;;;;;10.46;71.59;93781.22;516096;28;991;-57
2023/05/02 00:02:57;;;;;;;6.35;4.88;;;;;;;10.46;71.66;93779.19;516144;28;983;-57
2023/05/02 00:03:13;;;;;;;5.53;5.03;;;;;;;10.44;71.58;93781.00;516120;28;856;-56
2023/05/02 00:03:28;;;;;;;5.90;5.30;;;;;;;10.36;71.69;93786.47;516215;28;828;-57
2023/05/02 00:03:44;;;;;;;6.13;5.53;;;;;;;10.29;72.07;93786.38;516118;28;785;-57
2023/05/02 00:03:59;;;;;;;5.65;5.15;;;;;;;10.26;72.26;93784.72;516142;28;1013;-56
2023/05/02 00:04:14;;;;;;;5.20;4.70;;;;;;;10.23;72.18;93772.72;515937;28;825;-57
2023/05/02 00:04:30;;;;;;;5.22;4.72;;;;;;;10.08;72.15;93767.06;515870;28;1976;-57
2023/05/02 00:04:45;;;;;;;6.93;4.83;;;;;;;10.19;72.21;93783.38;513964;28;839;-57
2023/05/02 00:05:01;;;;;;;7.57;5.03;;;;;;;10.16;72.05;93781.69;513918;28;900;-57
2023/05/02 00:05:16;;;;;;;5.30;4.80;;;;;;;10.17;72.24;93788.69;513907;28;849;-56
2023/05/02 00:05:32;;;;;;;5.80;4.73;;;;;;;10.16;72.63;93773.41;513974;28;750;-56
2023/05/02 00:05:47;;;;;;;8.55;5.10;;;;;;;10.19;72.73;93777.09;511934;29;1601;-55
2023/05/02 00:06:03;;;;;;;6.80;4.60;;;;;;;10.20;72.62;93781.34;512286;28;818;-56
2023/05/02 00:06:18;;;;;;;4.88;4.47;;;;;;;10.21;72.48;93778.06;513907;28;916;-56
2023/05/02 00:06:34;;;;;;;6.70;5.13;;;;;;;10.17;72.76;93783.16;514110;28;912;-57
2023/05/02 00:06:52;;;;;;;7.22;5.38;;;;;;;10.11;72.74;93779.81;515979;28;1000;-57
2023/05/02 00:07:07;;;;;;;5.78;5.18;;;;;;;9.99;72.78;93761.25;513945;28;885;-54
2023/05/02 00:07:23;;;;;;;5.63;5.13;;;;;;;10.14;72.94;93777.97;513898;28;1624;-55
2023/05/02 00:07:38;;;;;;;5.90;5.40;;;;;;;10.16;72.84;93778.91;512561;28;1147;-56
2023/05/02 00:07:54;;;;;;;6.10;4.90;;;;;;;10.19;72.69;93783.38;513996;28;869;-57
2023/05/02 00:08:10;;;;;;;6.18;4.50;;;;;;;10.22;72.71;93784.31;513942;28;868;-56
2023/05/02 00:08:26;;;;;;;6.47;4.75;;;;;;;10.24;72.59;93779.00;513959;28;902;-56
2023/05/02 00:08:41;;;;;;;5.78;4.82;;;;;;;10.23;72.46;93774.75;511956;29;1128;-56
2023/05/02 00:08:57;;;;;;;5.80;5.30;;;;;;;10.25;72.42;93778.44;512461;28;849;-57
2023/05/02 00:09:13;;;;;;;6.22;5.63;;;;;;;10.23;72.62;93780.25;513950;28;904;-57
2023/05/02 00:09:28;;;;;;;6.05;5.38;;;;;;;10.12;72.59;93756.44;514378;28;957;-57
2023/05/02 00:09:44;;;;;;;7.93;5.50;;;;;;;10.26;72.26;93774.44;513903;28;905;-57
2023/05/02 00:10:01;;;;;;;7.35;5.68;;;;;;;10.28;72.28;93773.88;513904;28;908;-57
2023/05/02 00:10:17;;;;;;;7.55;5.97;;;;;;;10.30;72.16;93780.34;513991;28;871;-57
2023/05/02 00:10:33;;;;;;;7.40;5.93;;;;;;;10.31;72.05;93772.81;514537;28;837;-57
2023/05/02 00:10:48;;;;;;;6.22;5.60;;;;;;;10.29;72.26;93775.34;516012;28;879;-56
2023/05/02 00:11:04;;;;;;;6.60;5.70;;;;;;;10.27;72.35;93773.13;515906;28;927;-56
2023/05/02 00:11:20;;;;;;;5.95;5.38;;;;;;;10.26;72.61;93779.94;515945;28;903;-56
2023/05/02 00:11:35;;;;;;;6.20;5.60;;;;;;;10.28;72.67;93779.41;516075;28;1014;-57
2023/05/02 00:11:50;;;;;;;6.00;5.43;;;;;;;10.11;72.56;93751.47;516098;28;828;-57
2023/05/02 00:12:06;;;;;;;5.40;4.90;;;;;;;10.03;72.50;93743.09;516212;28;825;-57
2023/05/02 00:12:22;;;;;;;5.60;5.10;;;;;;;10.26;72.60;93779.94;516051;28;861;-57
2023/05/02 00:12:37;;;;;;;6.10;5.50;;;;;;;10.22;72.54;93779.53;516131;28;785;-57
2023/05/02 00:12:53;;;;;;;5.80;5.20;;;;;;;10.19;72.31;93780.59;516133;28;906;-57
2023/05/02 00:13:08;;;;;;;5.53;5.03;;;;;;;10.16;72.38;93778.91;516178;28;829;-57
2023/05/02 00:13:23;;;;;;;5.95;5.45;;;;;;;10.18;72.71;93776.34;516088;28;782;-55
2023/05/02 00:13:39;;;;;;;9.07;5.47;;;;;;;10.18;72.75;93779.13;516148;28;844;-56
2023/05/02 00:13:54;;;;;;;9.10;5.40;;;;;;;10.19;72.55;93777.09;516068;28;782;-57
2023/05/02 00:14:10;;;;;;;6.00;5.30;;;;;;;10.22;72.36;93782.28;516164;28;1118;-57
2023/05/02 00:14:25;;;;;;;6.47;5.30;;;;;;;10.24;72.24;93779.75;515957;28;815;-57
2023/05/02 00:14:40;;;;;;;6.75;5.45;;;;;;;10.24;72.53;93770.72;516068;28;853;-58
2023/05/02 00:14:56;;;;;;;6.30;5.20;;;;;;;10.19;72.75;93779.88;516176;28;785;-56
2023/05/02 00:15:11;;;;;;;6.27;5.40;;;;;;;10.14;72.83;93787.00;516158;28;794;-57
2023/05/02 00:15:26;;;;;;;6.53;5.72;;;;;;;10.15;72.87;93779.47;515882;28;1282;-56
2023/05/02 00:15:42;;;;;;;6.03;5.53;;;;;;;10.16;72.70;93784.44;516098;28;966;-56
2023/05/02 00:15:57;;;;;;;6.25;5.40;;;;;;;10.12;72.91;93778.50;516157;28;801;-56
2023/05/02 00:16:13;;;;;;;6.90;5.53;;;;;;;10.11;73.10;93781.81;516101;28;1561;-56
2023/05/02 00:16:28;;;;;;;6.50;5.53;;;;;;;10.10;72.98;93789.31;516639;28;1219;-55
2023/05/02 00:16:43;;;;;;;5.45;4.95;;;;;;;10.08;72.85;93785.63;518125;28;864;-57
2023/05/02 00:16:59;;;;;;;5.63;5.13;;;;;;;10.04;73.00;93788.72;518133;28;761;-56
2023/05/02 00:17:18;;;;;;;6.10;5.50;;;;;;;10.02;72.87;93788.50;518219;28;837;-57
2023/05/02 00:17:34;;;;;;;5.82;5.22;;;;;;;10.00;73.21;93793.84;518083;28;953;-56
2023/05/02 00:17:49;;;;;;;5.37;4.87;;;;;;;9.97;72.96;93786.63;518157;28;877;-54
2023/05/02 00:18:05;;;;;;;5.97;4.60;;;;;;;9.95;73.16;93789.19;518114;28;1000;-56
2023/05/02 00:18:20;;;;;;;7.23;4.97;;;;;;;9.96;73.34;93787.91;518079;28;936;-56
2023/05/02 00:18:35;;;;;;;6.13;5.20;;;;;;;9.97;73.42;93791.38;518137;28;983;-56
2023/05/02 00:18:51;;;;;;;6.00;5.40;;;;;;;9.99;73.42;93788.84;518125;28;848;-57
2023/05/02 00:19:06;;;;;;;5.97;5.37;;;;;;;10.01;73.68;93791.78;518204;28;828;-56
2023/05/02 00:19:22;;;;;;;5.95;5.13;;;;;;;10.02;73.36;93787.78;518179;28;856;-57
2023/05/02 00:19:38;;;;;;;5.67;5.00;;;;;;;10.02;73.36;93791.28;518137;28;774;-57
2023/05/02 00:19:54;;;;;;;6.40;4.95;;;;;;;10.01;73.65;93787.03;518166;28;884;-56
2023/05/02 00:20:10;;;;;;;6.67;5.37;;;;;;;10.03;73.60;93789.97;518178;28;1084;-57
2023/05/02 00:20:26;;;;;;;6.00;5.40;;;;;;;10.03;73.70;93787.22;518062;28;857;-57
2023/05/02 00:20:41;;;;;;;5.87;5.27;;;;;;;10.06;73.59;93791.69;518118;28;753;-57
2023/05/02 00:20:56;;;;;;;5.57;4.97;;;;;;;10.07;73.85;93795.91;518144;28;955;-57
2023/05/02 00:21:13;;;;;;;7.38;5.30;;;;;;;10.08;73.71;93788.38;518069;28;1649;-55
2023/05/02 00:21:28;;;;;;;8.43;5.82;;;;;;;10.09;73.78;93793.34;518209;28;934;-56
2023/05/02 00:21:47;;;;;;;7.00;5.30;;;;;;;10.08;73.66;93793.88;518089;28;1353;-57
2023/05/02 00:22:02;;;;;;;6.30;5.20;;;;;;;10.02;73.56;93788.50;518089;28;854;-55
2023/05/02 00:22:17;;;;;;;6.50;5.00;;;;;;;10.01;73.60;93789.78;518198;28;785;-56
2023/05/02 00:22:33;;;;;;;6.40;5.05;;;;;;;9.94;73.75;93793.94;518059;28;1081;-55
2023/05/02 00:22:48;;;;;;;5.50;5.00;;;;;;;9.94;73.73;93795.94;518160;28;813;-56
2023/05/02 00:23:04;;;;;;;5.70;5.18;;;;;;;9.96;73.95;93795.44;518124;28;849;-56
2023/05/02 00:23:19;;;;;;;6.23;5.30;;;;;;;9.94;73.91;93795.94;518158;28;832;-55
2023/05/02 00:23:34;;;;;;;7.80;5.70;;;;;;;9.95;73.75;93794.69;518084;28;870;-57
2023/05/02 00:23:50;;;;;;;6.45;5.57;;;;;;;9.97;74.01;93797.66;518107;28;884;-57
2023/05/02 00:24:06;;;;;;;5.47;4.97;;;;;;;10.00;73.92;93795.84;518154;28;970;-57
2023/05/02 00:24:21;;;;;;;5.77;5.17;;;;;;;10.00;73.93;93795.84;518083;28;852;-56
2023/05/02 00:24:36;;;;;;;6.73;5.47;;;;;;;9.65;73.80;93745.50;517998;28;1915;-57
2023/05/02 00:24:58;;;;;;;5.78;4.95;;;;;;;10.01;73.78;93798.06;518070;28;872;-57
2023/05/02 00:25:15;;;;;;;5.30;4.80;;;;;;;10.02;73.71;93794.03;518102;28;878;-57
2023/05/02 00:25:31;;;;;;;6.10;5.35;;;;;;;10.04;73.52;93791.47;518102;28;947;-57
2023/05/02 00:25:46;;;;;;;6.07;5.40;;;;;;;9.98;73.23;93799.16;518086;28;808;-57
2023/05/02 00:26:02;;;;;;;5.82;5.32;;;;;;;9.96;73.48;93796.19;518169;28;856;-57
2023/05/02 00:26:17;;;;;;;5.53;5.03;;;;;;;9.97;73.51;93794.88;518125;28;958;-57
2023/05/02 00:26:32;;;;;;;5.27;4.77;;;;;;;9.91;73.70;93799.81;518073;28;760;-55
2023/05/02 00:26:48;;;;;;;5.05;4.43;;;;;;;9.83;73.90;93799.72;518083;28;884;-57
2023/05/02 00:27:05;;;;;;;5.20;4.40;;;;;;;9.75;74.05;93793.38;518149;28;833;-57
2023/05/02 00:27:20;;;;;;;6.00;4.95;;;;;;;9.72;74.49;93794.44;516191;28;2376;-57
2023/05/02 00:27:35;;;;;;;5.70;5.10;;;;;;;9.74;74.29;93793.91;516132;28;840;-57
2023/05/02 00:27:51;;;;;;;6.53;4.87;;;;;;;9.77;74.42;93795.59;516086;28;827;-57
2023/05/02 00:28:07;;;;;;;8.07;4.78;;;;;;;9.78;74.30;93797.84;516128;28;865;-57
2023/05/02 00:28:22;;;;;;;6.72;4.75;;;;;;;9.76;74.27;93794.88;516082;28;847;-57
2023/05/02 00:28:37;;;;;;;5.70;5.20;;;;;;;9.66;74.21;93793.81;516120;28;861;-57
2023/05/02 00:28:53;;;;;;;6.40;5.40;;;;;;;9.65;74.51;93794.38;516159;28;828;-57
2023/05/02 00:29:08;;;;;;;5.93;5.00;;;;;;;9.66;74.62;93798.59;516129;28;872;-57
2023/05/02 00:29:24;;;;;;;5.60;5.10;;;;;;;9.67;74.80;93791.81;516148;28;855;-57
2023/05/02 00:29:40;;;;;;;5.38;4.88;;;;;;;9.73;74.59;93795.94;516094;28;773;-57
2023/05/02 00:29:55;;;;;;;5.57;4.68;;;;;;;9.78;74.53;93797.09;516036;28;903;-57
2023/05/02 00:30:11;;;;;;;8.13;4.73;;;;;;;9.75;74.46;93795.38;516133;28;832;-57
2023/05/02 00:30:27;;;;;;;7.78;4.97;;;;;;;9.73;74.58;93801.44;516036;28;828;-57
2023/05/02 00:30:45;;;;;;;8.43;5.50;;;;;;;9.71;74.30;93795.72;515633;28;1222;-57
2023/05/02 00:31:01;;;;;;;7.07;5.35;;;;;;;9.72;74.63;93796.47;516073;28;871;-57
2023/05/02 00:31:16;;;;;;;5.93;4.97;;;;;;;9.75;74.54;93795.38;516160;28;773;-56
2023/05/02 00:31:32;;;;;;;5.43;4.93;;;;;;;9.74;74.25;93791.16;516079;28;865;-55
2023/05/02 00:31:47;;;;;;;6.05;5.45;;;;;;;9.76;74.42;93799.63;516142;28;773;-56
2023/05/02 00:32:02;;;;;;;6.33;5.67;;;;;;;9.78;74.25;93803.34;516124;28;864;-56
2023/05/02 00:32:18;;;;;;;6.27;5.67;;;;;;;9.81;74.39;93801.53;517227;28;1564;-57
2023/05/02 00:32:33;;;;;;;6.05;5.45;;;;;;;9.83;74.15;93799.00;518098;28;801;-56
2023/05/02 00:32:49;;;;;;;5.53;5.03;;;;;;;9.79;74.36;93798.56;518092;28;887;-57
2023/05/02 00:33:05;;;;;;;5.68;5.18;;;;;;;9.74;74.50;93796.69;518008;28;868;-57
2023/05/02 00:33:21;;;;;;;5.95;5.35;;;;;;;9.68;74.62;93796.78;518058;28;942;-55
2023/05/02 00:33:36;;;;;;;6.30;5.22;;;;;;;9.66;74.72;93798.59;516339;28;1744;-56
2023/05/02 00:33:52;;;;;;;5.97;5.33;;;;;;;9.62;75.03;93798.19;515997;28;833;-56
2023/05/02 00:34:07;;;;;;;5.82;5.22;;;;;;;9.59;75.22;93800.00;516122;28;793;-55
2023/05/02 00:34:23;;;;;;;5.50;5.00;;;;;;;9.57;75.33;93805.28;515969;28;973;-55
2023/05/02 00:34:38;;;;;;;5.65;5.05;;;;;;;9.54;75.47;93794.59;516140;28;821;-56
2023/05/02 00:34:54;;;;;;;6.27;5.30;;;;;;;9.49;76.06;93798.97;516036;28;943;-55
2023/05/02 00:35:10;;;;;;;6.50;5.68;;;;;;;9.44;76.21;93799.81;516146;28;1146;-57
2023/05/02 00:35:25;;;;;;;6.30;5.47;;;;;;;9.44;76.27;93794.28;516068;28;930;-55
2023/05/02 00:35:40;;;;;;;5.93;5.40;;;;;;;9.45;76.40;93803.31;515973;28;931;-56
2023/05/02 00:35:56;;;;;;;6.33;5.70;;;;;;;9.43;76.79;93792.06;516147;28;870;-57
2023/05/02 00:36:15;;;;;;;8.23;5.38;;;;;;;9.46;76.53;93799.28;516105;28;832;-56
2023/05/02 00:36:31;;;;;;;8.77;5.20;;;;;;;9.40;76.64;93796.63;515801;28;880;-57
2023/05/02 00:36:47;;;;;;;6.25;5.03;;;;;;;9.46;76.40;93799.28;515921;28;868;-57
2023/05/02 00:37:02;;;;;;;5.60;4.70;;;;;;;9.42;76.38;93802.34;515828;28;861;-56
2023/05/02 00:37:18;;;;;;;5.80;5.00;;;;;;;9.44;76.24;93799.09;515931;28;1596;-56
2023/05/02 00:37:33;;;;;;;5.35;4.85;;;;;;;9.40;76.46;93802.16;515865;28;860;-57
2023/05/02 00:37:49;;;;;;;5.33;4.83;;;;;;;9.44;76.50;93805.31;515922;28;865;-57
2023/05/02 00:38:05;;;;;;;5.63;5.10;;;;;;;9.40;76.60;93804.19;515885;28;809;-57
2023/05/02 00:38:20;;;;;;;5.70;5.10;;;;;;;9.38;76.56;93799.19;515938;28;891;-56
2023/05/02 00:38:36;;;;;;;5.65;5.10;;;;;;;9.40;76.33;93801.44;516045;28;868;-55
2023/05/02 00:38:52;;;;;;;5.72;4.82;;;;;;;9.38;76.95;93803.94;516075;28;1245;-57
2023/05/02 00:39:07;;;;;;;6.97;4.90;;;;;;;9.35;77.16;93797.50;516036;28;868;-57
2023/05/02 00:39:23;;;;;;;6.17;5.10;;;;;;;9.39;76.94;93797.19;516145;28;816;-56
2023/05/02 00:39:38;;;;;;;5.73;5.10;;;;;;;9.42;76.81;93804.38;516037;28;828;-56
2023/05/02 00:39:54;;;;;;;6.60;4.90;;;;;;;9.42;76.64;93799.59;516063;28;848;-57
2023/05/02 00:40:09;;;;;;;6.17;5.00;;;;;;;9.48;76.91;93807.75;516044;28;1679;-55
2023/05/02 00:40:25;;;;;;;6.03;5.43;;;;;;;9.49;76.53;93798.22;515961;28;939;-55
2023/05/02 00:40:45;;;;;;;6.00;5.40;;;;;;;9.46;76.82;93804.81;516034;28;836;-57
2023/05/02 00:41:00;;;;;;;5.50;4.93;;;;;;;9.46;77.03;93799.28;516075;28;911;-57
2023/05/02 00:41:16;;;;;;;5.22;4.72;;;;;;;9.37;76.59;93799.72;516098;28;963;-55
2023/05/02 00:41:31;;;;;;;7.40;5.25;;;;;;;9.40;76.49;93804.19;515990;28;935;-55
2023/05/02 00:41:47;;;;;;;8.00;5.77;;;;;;;9.39;76.83;93802.69;516130;28;820;-56
2023/05/02 00:42:02;;;;;;;5.93;5.40;;;;;;;9.40;76.97;93804.19;516000;28;1083;-56
2023/05/02 00:42:17;;;;;;;5.72;5.13;;;;;;;9.45;77.22;93803.31;517884;28;892;-56
2023/05/02 00:42:34;;;;;;;6.00;5.27;;;;;;;9.46;76.99;93805.56;517876;28;815;-56
2023/05/02 00:42:50;;;;;;;6.32;5.18;;;;;;;9.49;77.18;93809.22;517913;28;908;-57
2023/05/02 00:43:05;;;;;;;6.33;5.00;;;;;;;9.49;76.90;93800.97;515875;28;702;-55
2023/05/02 00:43:20;;;;;;;5.80;5.07;;;;;;;9.46;76.79;93802.78;515808;28;919;-55
2023/05/02 00:43:38;;;;;;;6.43;5.50;;;;;;;9.45;76.81;93804.06;515936;28;904;-56
2023/05/02 00:43:53;;;;;;;6.45;5.75;;;;;;;9.43;76.78;93800.34;515868;28;1078;-56
2023/05/02 00:44:09;;;;;;;6.93;5.73;;;;;;;9.48;76.60;93805.00;513938;28;778;-56
2023/05/02 00:44:24;;;;;;;6.77;5.73;;;;;;;9.48;76.69;93803.00;513803;28;947;-56
2023/05/02 00:44:39;;;;;;;6.00;5.40;;;;;;;9.50;76.55;93807.97;513854;28;1972;-56
2023/05/02 00:44:55;;;;;;;9.13;5.40;;;;;;;9.52;76.62;93805.41;514387;28;930;-55
2023/05/02 00:45:11;;;;;;;10.07;5.53;;;;;;;9.53;76.52;93809.66;515928;28;829;-57
2023/05/02 00:45:26;;;;;;;7.80;5.30;;;;;;;9.51;76.63;93803.94;515749;28;1203;-57
2023/05/02 00:45:42;;;;;;;6.65;5.13;;;;;;;9.51;76.43;93812.19;515502;28;894;-57
2023/05/02 00:45:58;;;;;;;6.65;5.10;;;;;;;9.34;76.42;93789.75;515603;28;849;-56
2023/05/02 00:46:14;;;;;;;7.30;5.20;;;;;;;9.46;76.26;93813.06;516061;28;766;-57
2023/05/02 00:46:29;;;;;;;6.07;5.40;;;;;;;9.46;76.55;93810.31;515957;28;844;-56
2023/05/02 00:46:44;;;;;;;6.15;5.53;;;;;;;9.44;76.74;93813.59;516028;28;869;-57
2023/05/02 00:47:00;;;;;;;5.93;5.30;;;;;;;9.39;76.80;93811.69;516040;28;940;-57
2023/05/02 00:47:16;;;;;;;7.00;5.47;;;;;;;9.33;76.96;93815.84;516127;28;802;-55
2023/05/02 00:47:31;;;;;;;8.20;5.77;;;;;;;9.30;77.17;93814.13;515863;28;916;-56
2023/05/02 00:47:48;;;;;;;7.10;5.78;;;;;;;9.30;77.60;93806.63;515896;28;857;-56
2023/05/02 00:48:04;;;;;;;6.88;5.97;;;;;;;9.28;77.63;93817.44;513817;28;931;-57
2023/05/02 00:48:20;;;;;;;6.43;5.53;;;;;;;9.24;77.73;93819.03;513936;28;957;-57
2023/05/02 00:48:36;;;;;;;5.93;5.32;;;;;;;9.23;77.91;93812.03;513881;28;1102;-57
2023/05/02 00:48:51;;;;;;;6.50;5.90;;;;;;;9.24;77.93;93806.00;513898;28;856;-57
2023/05/02 00:49:07;;;;;;;6.35;5.72;;;;;;;9.28;78.08;93811.94;513855;28;944;-57
2023/05/02 00:49:22;;;;;;;5.70;5.20;;;;;;;9.34;78.10;93814.56;514601;28;838;-57
2023/05/02 00:49:37;;;;;;;5.53;5.03;;;;;;;9.35;77.52;93814.03;515903;28;809;-57
2023/05/02 00:49:53;;;;;;;5.95;5.35;;;;;;;9.34;77.39;93815.31;515886;28;919;-57
2023/05/02 00:50:08;;;;;;;6.63;5.53;;;;;;;9.33;77.22;93813.09;516062;28;858;-56
2023/05/02 00:50:26;;;;;;;6.10;5.38;;;;;;;9.31;77.38;93808.13;516011;28;816;-56
2023/05/02 00:50:42;;;;;;;6.68;5.65;;;;;;;9.20;77.29;93802.09;516001;28;982;-57
2023/05/02 00:50:57;;;;;;;7.03;5.43;;;;;;;9.33;77.30;93815.84;516014;28;873;-56
2023/05/02 00:51:13;;;;;;;5.93;5.32;;;;;;;9.31;77.87;93812.88;516009;28;1347;-56
2023/05/02 00:51:28;;;;;;;6.93;5.40;;;;;;;9.29;77.92;93812.66;516106;28;821;-56
2023/05/02 00:51:44;;;;;;;6.80;5.50;;;;;;;9.31;77.77;93815.63;515977;28;924;-57
2023/05/02 00:52:00;;;;;;;6.03;5.43;;;;;;;9.32;77.61;93814.34;516140;28;773;-56
2023/05/02 00:52:16;;;;;;;8.73;5.55;;;;;;;9.31;77.71;93816.38;516015;28;1007;-56
2023/05/02 00:52:32;;;;;;;8.67;5.63;;;;;;;9.26;77.62;93811.72;516034;28;836;-57
2023/05/02 00:52:47;;;;;;;5.75;5.25;;;;;;;9.23;77.89;93815.53;516056;28;924;-55
2023/05/02 00:53:04;;;;;;;5.60;5.10;;;;;;;9.16;78.02;93811.41;516088;28;821;-56
2023/05/02 00:53:20;;;;;;;5.88;5.30;;;;;;;9.16;78.02;93805.88;516120;28;844;-56
2023/05/02 00:53:35;;;;;;;6.20;5.60;;;;;;;9.18;78.25;93811.59;516036;28;978;-56
2023/05/02 00:53:51;;;;;;;5.73;5.23;;;;;;;9.18;77.95;93808.84;517861;28;856;-57
2023/05/02 00:54:07;;;;;;;6.00;5.32;;;;;;;9.22;77.90;93813.31;517998;28;794;-56
2023/05/02 00:54:22;;;;;;;6.47;5.45;;;;;;;9.21;77.95;93806.31;517868;28;789;-56
2023/05/02 00:54:40;;;;;;;6.07;5.50;;;;;;;9.23;77.89;93814.78;517949;28;814;-55
2023/05/02 00:54:55;;;;;;;6.63;5.90;;;;;;;9.22;78.25;93816.06;517877;28;872;-56
2023/05/02 00:55:11;;;;;;;7.57;5.90;;;;;;;9.24;78.29;93816.28;515863;28;864;-56
2023/05/02 00:55:26;;;;;;;6.43;5.27;;;;;;;9.26;78.11;93816.47;515971;28;852;-57
2023/05/02 00:55:42;;;;;;;6.37;5.20;;;;;;;9.27;78.25;93807.69;515910;28;789;-56
2023/05/02 00:55:58;;;;;;;6.43;5.53;;;;;;;9.27;78.30;93809.72;515858;28;856;-56
2023/05/02 00:56:13;;;;;;;7.03;5.45;;;;;;;9.26;78.31;93808.22;515894;28;953;-55
2023/05/02 00:56:28;;;;;;;8.37;5.93;;;;;;;9.28;78.00;93809.16;515862;28;1671;-57
2023/05/02 00:56:44;;;;;;;7.23;6.20;;;;;;;9.30;78.37;93811.38;515894;28;828;-56
2023/05/02 00:56:59;;;;;;;6.50;5.90;;;;;;;9.29;78.04;93812.66;515893;28;881;-56
2023/05/02 00:57:15;;;;;;;9.35;5.72;;;;;;;9.26;78.27;93805.47;515812;28;874;-55
2023/05/02 00:57:31;;;;;;;8.73;5.60;;;;;;;9.30;78.56;93819.66;515987;28;836;-57
2023/05/02 00:57:47;;;;;;;6.20;5.60;;;;;;;9.29;78.35;93810.63;515765;28;1189;-56
2023/05/02 00:58:05;;;;;;;7.70;5.53;;;;;;;9.33;78.16;93815.84;513930;28;880;-57
2023/05/02 00:58:21;;;;;;;7.93;5.78;;;;;;;9.33;77.89;93811.09;511811;29;920;-57
2023/05/02 00:58:37;;;;;;;8.23;5.90;;;;;;;9.36;78.01;93812.75;511887;29;799;-56
2023/05/02 00:58:53;;;;;;;8.40;5.95;;;;;;;9.40;77.80;93817.97;511877;29;858;-56
2023/05/02 00:59:10;;;;;;;7.18;5.65;;;;;;;9.40;77.62;93804.91;511950;29;1008;-57
2023/05/02 00:59:25;;;;;;;6.97;5.35;;;;;;;9.47;77.43;93807.03;511837;29;873;-56
2023/05/02 00:59:41;;;;;;;7.07;5.60;;;;;;;9.47;76.87;93807.03;512871;28;899;-56
2023/05/02 00:59:57;;;;;;;6.53;5.40;;;;;;;9.48;76.94;93814.03;514986;28;873;-57
2023/05/02 01:00:13;;;;;;;6.53;5.72;;;;;;;9.50;76.90;93811.47;513897;28;844;-57
2023/05/02 01:00:57;;;;;;;6.88;5.97;;;;;;;9.54;76.67;93813.91;513871;28;822;-57
2023/05/02 01:01:21;;;;;;;7.78;5.72;;;;;;;9.54;76.80;93806.38;511500;29;1321;-57
2023/05/02 01:01:59;;;;;;;7.60;5.45;;;;;;;9.50;76.44;93808.72;509714;29;865;-57
2023/05/02 01:02:35;;;;;;;5.65;5.13;;;;;;;9.47;76.76;93811.78;515823;28;859;-56
2023/05/02 01:02:57;;;;;;;8.23;5.30;;;;;;;9.44;76.85;93810.09;515831;28;959;-57
2023/05/02 01:03:37;;;;;;;9.13;5.70;;;;;;;9.45;76.56;93809.56;515817;28;888;-57
2023/05/02 01:03:58;;;;;;;6.63;5.88;;;;;;;9.52;76.84;93808.19;513883;28;962;-57
2023/05/02 01:04:19;;;;;;;6.88;5.60;;;;;;;9.52;76.78;93810.94;515549;28;912;-57
2023/05/02 01:05:14;;;;;;;6.10;5.50;;;;;;;9.49;76.58;93809.97;515706;28;1910;-57
2023/05/02 01:05:41;;;;;;;6.03;5.47;;;;;;;9.53;76.82;93807.63;511750;29;1166;-57
2023/05/02 01:06:15;;;;;;;8.73;5.57;;;;;;;9.57;76.45;93799.78;511745;29;956;-57
2023/05/02 01:07:01;;;;;;;6.35;5.40;;;;;;;9.62;76.53;93806.44;513820;28;836;-55
2023/05/02 01:07:58;;;;;;;7.78;6.20;;;;;;;9.64;76.43;93806.66;513837;28;872;-57
2023/05/02 01:08:35;;;;;;;8.75;5.88;;;;;;;9.67;76.34;93808.34;513708;28;883;-57
2023/05/02 01:09:19;;;;;;;6.43;5.85;;;;;;;9.68;76.17;93796.78;513731;28;1279;-57
2023/05/02 01:09:47;;;;;;;6.68;6.05;;;;;;;9.77;75.92;93807.38;503614;29;1276;-57
2023/05/02 01:10:35;;;;;;;5.63;5.22;;;;;;;9.80;75.78;93803.56;513704;28;905;-57
2023/05/02 01:11:11;;;;;;;5.88;5.13;;;;;;;9.79;75.88;93795.78;503751;29;1200;-57
2023/05/02 01:12:05;;;;;;;7.90;5.47;;;;;;;9.82;75.69;93803.75;503897;29;896;-56
2023/05/02 01:12:31;;;;;;;6.45;5.80;;;;;;;9.83;75.40;93799.72;513762;28;914;-57
2023/05/02 01:13:05;;;;;;;6.53;5.90;;;;;;;9.87;75.67;93807.66;513711;28;897;-57
2023/05/02 01:13:27;;;;;;;6.68;5.78;;;;;;;9.89;75.43;93802.34;514739;28;820;-57
2023/05/02 01:13:44;;;;;;;6.28;5.68;;;;;;;9.92;75.52;93801.25;513690;28;1029;-56
2023/05/02 01:14:01;;;;;;;6.30;5.70;;;;;;;9.91;75.40;93800.53;513714;28;815;-57
2023/05/02 01:14:17;;;;;;;7.95;5.80;;;;;;;9.93;75.30;93802.75;513704;28;1198;-56
2023/05/02 01:14:46;;;;;;;8.18;5.50;;;;;;;9.93;75.37;93798.00;513772;28;874;-57
2023/05/02 01:15:05;;;;;;;6.07;5.50;;;;;;;9.96;74.96;93806.47;513818;28;881;-55
2023/05/02 01:15:21;;;;;;;6.18;5.57;;;;;;;9.94;74.98;93804.22;513732;28;1229;-57
2023/05/02 01:15:38;;;;;;;5.95;5.35;;;;;;;9.91;75.10;93813.59;513997;28;806;-57
2023/05/02 01:15:55;;;;;;;5.97;5.38;;;;;;;9.93;75.04;93800.00;515852;28;836;-57
2023/05/02 01:16:12;;;;;;;6.10;5.50;;;;;;;9.95;75.14;93802.97;515756;28;900;-57
2023/05/02 01:16:28;;;;;;;5.95;5.35;;;;;;;9.98;75.04;93804.66;514284;28;1211;-57
2023/05/02 01:16:44;;;;;;;5.97;5.37;;;;;;;10.01;74.90;93806.31;515864;28;865;-57
2023/05/02 01:17:03;;;;;;;5.85;5.35;;;;;;;10.05;74.98;93801.22;515826;28;916;-57
2023/05/02 01:17:19;;;;;;;5.95;5.45;;;;;;;9.97;74.74;93785.88;513873;28;902;-58
2023/05/02 01:17:35;;;;;;;5.88;5.38;;;;;;;9.93;74.59;93783.47;511822;29;861;-57
2023/05/02 01:17:51;;;;;;;5.68;5.18;;;;;;;10.13;74.69;93804.09;511831;29;893;-57
2023/05/02 01:18:11;;;;;;;6.90;5.47;;;;;;;9.88;74.24;93771.28;511876;29;874;-57
2023/05/02 01:18:30;;;;;;;8.55;5.75;;;;;;;10.13;74.42;93804.84;511789;29;872;-57
2023/05/02 01:18:46;;;;;;;6.30;5.57;;;;;;;10.13;74.47;93793.81;511839;29;902;-57
2023/05/02 01:19:03;;;;;;;6.13;5.47;;;;;;;10.12;74.32;93799.84;513826;28;853;-57
2023/05/02 01:19:25;;;;;;;7.38;5.60;;;;;;;10.03;74.40;93798.25;509944;28;826;-58
2023/05/02 01:19:44;;;;;;;9.10;5.78;;;;;;;9.99;74.72;93799.88;509842;29;939;-57
2023/05/02 01:20:06;;;;;;;6.68;5.40;;;;;;;9.99;74.71;93800.63;509958;29;835;-57
2023/05/02 01:20:23;;;;;;;6.20;5.18;;;;;;;10.02;74.94;93793.28;507832;29;855;-57
2023/05/02 01:20:41;;;;;;;6.00;5.40;;;;;;;10.07;74.68;93797.94;509939;29;885;-57
2023/05/02 01:21:00;;;;;;;5.78;5.28;;;;;;;10.09;74.62;93798.16;509841;29;873;-57
2023/05/02 01:21:15;;;;;;;6.25;5.68;;;;;;;10.11;74.42;93795.63;507831;29;869;-57
2023/05/02 01:21:32;;;;;;;6.27;5.77;;;;;;;10.14;74.49;93795.28;507907;29;880;-57
2023/05/02 01:21:48;;;;;;;6.20;5.70;;;;;;;10.17;74.39;93799.72;508112;29;937;-57
2023/05/02 01:22:06;;;;;;;6.95;5.88;;;;;;;10.03;74.25;93770.66;507913;29;873;-58
2023/05/02 01:22:23;;;;;;;8.98;5.65;;;;;;;10.19;74.37;93794.41;509792;29;841;-57
2023/05/02 01:22:40;;;;;;;9.60;5.90;;;;;;;10.20;74.24;93798.63;509916;29;869;-57
2023/05/02 01:22:59;;;;;;;8.40;5.78;;;;;;;10.21;74.13;93791.84;511827;29;877;-57
2023/05/02 01:23:46;;;;;;;6.93;5.20;;;;;;;10.24;74.01;93801.06;511792;29;927;-58
2023/05/02 01:24:24;;;;;;;5.63;5.10;;;;;;;10.26;73.85;93796.50;509437;28;1352;-58
2023/05/02 01:25:04;;;;;;;5.93;5.40;;;;;;;10.30;73.76;93801.69;513677;28;1974;-57
2023/05/02 01:25:35;;;;;;;9.40;6.13;;;;;;;10.24;73.90;93795.56;517755;28;906;-57
2023/05/02 01:26:12;;;;;;;6.30;5.40;;;;;;;10.25;73.88;93797.03;517925;28;852;-57
2023/05/02 01:27:05;;;;;;;6.05;5.45;;;;;;;10.21;73.85;93796.63;517974;28;816;-57
2023/05/02 01:27:29;;;;;;;7.70;5.38;;;;;;;10.23;73.83;93802.34;517977;28;927;-58
2023/05/02 01:28:02;;;;;;;8.00;5.20;;;;;;;10.22;73.79;93801.59;518019;28;854;-57
2023/05/02 01:28:33;;;;;;;5.80;5.20;;;;;;;10.28;73.74;93802.22;517986;28;872;-57
2023/05/02 01:28:58;;;;;;;5.25;4.75;;;;;;;10.32;73.60;93799.13;517841;28;1887;-58
2023/05/02 01:29:14;;;;;;;5.65;5.10;;;;;;;10.34;73.12;93797.31;515764;28;918;-57